Time;durP1;ratioP1;P1;durP2;ratioP2;P2;SDS_P1;SDS_P2;PMS_P1;PMS_P2;Temp;Humidity;BMP_temperature;BMP_pressure;BME280_temperature;BME280_humidity;BME280_pressure;Samples;Min_cycle;Max_cycle;Signal;HPM_P1;HPM_P2
2022/06/29 00:00:53;;;;;;;8.40;4.03;;;;;;;21.22;93.50;100507.66;5030438;28;20045;-72
2022/06/29 00:03:19;;;;;;;5.93;3.45;;;;;;;21.16;93.17;100474.47;5049482;28;20097;-74
2022/06/29 00:05:44;;;;;;;4.30;3.33;;;;;;;21.48;92.54;100517.97;5049470;28;20025;-72
2022/06/29 00:08:10;;;;;;;6.50;3.60;;;;;;;21.69;91.90;100537.13;5049303;28;20021;-75
2022/06/29 00:10:37;;;;;;;7.13;3.75;;;;;;;21.36;92.33;100474.31;5049488;28;20029;-71
2022/06/29 00:13:03;;;;;;;6.00;3.60;;;;;;;21.74;92.43;100551.97;5049359;28;20027;-70
2022/06/29 00:15:29;;;;;;;7.13;4.03;;;;;;;21.53;92.32;100507.44;5049125;28;20120;-72
2022/06/29 00:17:55;;;;;;;5.85;3.47;;;;;;;21.64;92.21;100508.25;5049333;28;20036;-74
2022/06/29 00:20:21;;;;;;;5.75;3.72;;;;;;;21.90;91.73;100522.94;5049431;28;20441;-72
2022/06/29 00:22:47;;;;;;;7.45;3.83;;;;;;;22.01;92.12;100539.47;5049294;28;20408;-72
2022/06/29 00:25:14;;;;;;;7.63;3.83;;;;;;;22.05;93.25;100541.19;5049493;28;20464;-72
2022/06/29 00:27:40;;;;;;;8.80;4.50;;;;;;;21.53;94.06;100503.06;5048448;28;20032;-74
2022/06/29 00:30:07;;;;;;;9.57;4.32;;;;;;;21.37;97.16;100523.34;5049003;28;20033;-74
2022/06/29 00:32:33;;;;;;;8.27;4.57;;;;;;;21.03;100.00;100512.16;5048935;28;20496;-74
2022/06/29 00:34:59;;;;;;;8.63;4.32;;;;;;;20.45;100.00;100436.31;5049235;28;20036;-72
2022/06/29 00:37:26;;;;;;;7.15;4.60;;;;;;;20.95;100.00;100481.56;5047903;28;20487;-76
2022/06/29 00:39:51;;;;;;;10.38;4.60;;;;;;;20.99;100.00;100478.03;5049377;28;20028;-73
2022/06/29 00:42:17;;;;;;;6.32;4.28;;;;;;;21.08;100.00;100473.63;5048770;28;20090;-73
2022/06/29 00:44:42;;;;;;;8.27;4.57;;;;;;;20.87;100.00;100424.75;5048842;28;20470;-73
2022/06/29 00:47:07;;;;;;;8.43;4.60;;;;;;;21.09;100.00;100449.13;5049092;28;20028;-73
2022/06/29 00:49:34;;;;;;;5.93;4.20;;;;;;;21.25;100.00;100470.91;5049280;28;20017;-71
2022/06/29 00:52:03;;;;;;;7.88;4.72;;;;;;;21.25;100.00;100465.66;5048033;28;20021;-71
2022/06/29 00:54:34;;;;;;;6.45;4.88;;;;;;;21.16;100.00;100461.34;5049257;28;20025;-73
2022/06/29 00:57:05;;;;;;;9.38;5.50;;;;;;;21.22;100.00;100461.28;5048834;28;20488;-73
2022/06/29 00:59:34;;;;;;;6.22;4.40;;;;;;;21.09;100.00;100438.63;5049610;28;20116;-72
2022/06/29 01:02:01;;;;;;;7.45;4.70;;;;;;;20.85;100.00;100403.78;5030565;28;20036;-73
2022/06/29 01:04:26;;;;;;;6.47;4.68;;;;;;;21.28;100.00;100482.25;5048796;28;20033;-74
2022/06/29 01:06:51;;;;;;;7.57;4.35;;;;;;;21.39;99.63;100492.66;5048743;28;20090;-71
2022/06/29 01:09:18;;;;;;;9.70;5.10;;;;;;;21.45;99.77;100510.13;5048915;28;20082;-76
2022/06/29 01:11:44;;;;;;;7.88;5.00;;;;;;;21.61;100.00;100527.56;5048740;28;20060;-73
2022/06/29 01:14:15;;;;;;;7.95;4.80;;;;;;;21.50;99.44;100531.97;5013616;28;20037;-71
2022/06/29 01:16:40;;;;;;;5.45;4.07;;;;;;;21.13;100.00;100516.47;5049208;28;20048;-73
2022/06/29 01:19:05;;;;;;;7.32;4.88;;;;;;;20.95;100.00;100510.44;5048832;28;20056;-72
2022/06/29 01:21:33;;;;;;;9.45;5.43;;;;;;;20.77;100.00;100510.53;5049192;28;20017;-74
2022/06/29 01:23:59;;;;;;;5.68;4.32;;;;;;;20.41;100.00;100480.91;5048540;28;20025;-73
2022/06/29 01:26:24;;;;;;;5.93;4.43;;;;;;;20.17;100.00;100485.34;5048848;28;20025;-73
2022/06/29 01:28:50;;;;;;;7.57;5.22;;;;;;;20.04;100.00;100446.06;5048831;28;20163;-71
2022/06/29 01:31:17;;;;;;;7.75;5.10;;;;;;;20.36;100.00;100486.16;5048312;28;20053;-74
2022/06/29 01:33:45;;;;;;;8.50;5.05;;;;;;;20.39;100.00;100478.28;5048582;28;20032;-73
2022/06/29 01:36:12;;;;;;;7.60;4.63;;;;;;;20.64;100.00;100475.59;5048870;28;20025;-74
2022/06/29 01:38:38;;;;;;;7.78;5.00;;;;;;;20.66;100.00;100472.06;5048653;28;20017;-73
2022/06/29 01:41:06;;;;;;;8.82;5.22;;;;;;;20.73;100.00;100472.94;5052324;28;20583;-77
2022/06/29 01:43:32;;;;;;;6.43;4.90;;;;;;;20.36;100.00;100442.47;5052595;28;20025;-70
2022/06/29 01:45:58;;;;;;;7.88;5.30;;;;;;;20.41;100.00;100457.31;5052451;28;20040;-75
2022/06/29 01:48:24;;;;;;;7.47;5.22;;;;;;;20.27;100.00;100446.88;5066628;28;20589;-73
2022/06/29 01:50:49;;;;;;;7.72;5.40;;;;;;;20.15;100.00;100458.25;5049141;28;20052;-71
2022/06/29 01:53:15;;;;;;;8.23;5.35;;;;;;;20.07;100.00;100444.31;5051573;28;20557;-75
2022/06/29 01:55:42;;;;;;;8.57;5.20;;;;;;;20.29;100.00;100445.13;5052344;28;20055;-73
2022/06/29 01:58:08;;;;;;;7.43;5.70;;;;;;;20.31;100.00;100425.00;5051768;28;20100;-73
2022/06/29 02:00:33;;;;;;;9.85;5.70;;;;;;;20.62;100.00;100449.38;5052200;28;20025;-74
2022/06/29 02:02:59;;;;;;;9.95;5.30;;;;;;;20.47;100.00;100404.84;5051828;28;20032;-73
2022/06/29 02:05:24;;;;;;;9.50;5.15;;;;;;;20.64;100.00;100436.25;5051794;28;20028;-75
2022/06/29 02:07:50;;;;;;;6.10;5.10;;;;;;;20.84;100.00;100460.63;5051141;28;20108;-74
2022/06/29 02:10:15;;;;;;;7.32;5.60;;;;;;;20.78;100.00;100428.31;5051627;28;20116;-74
2022/06/29 02:12:40;;;;;;;8.10;5.20;;;;;;;21.06;100.00;100454.38;5051641;28;20075;-71
2022/06/29 02:15:07;;;;;;;9.05;5.53;;;;;;;20.85;100.00;100412.53;5051493;28;20108;-75
2022/06/29 02:17:33;;;;;;;7.93;5.72;;;;;;;21.11;100.00;100437.72;5051487;28;20499;-73
2022/06/29 02:19:58;;;;;;;7.43;5.38;;;;;;;21.21;100.00;100424.53;5051445;28;20060;-75
2022/06/29 02:22:24;;;;;;;7.75;5.90;;;;;;;21.34;100.00;100453.28;5051135;28;20479;-74
2022/06/29 02:24:49;;;;;;;7.95;5.43;;;;;;;20.97;100.00;100405.44;5051315;28;20031;-76
2022/06/29 02:27:15;;;;;;;7.65;5.70;;;;;;;21.17;100.00;100442.03;5051547;28;20104;-73
2022/06/29 02:29:40;;;;;;;7.32;5.65;;;;;;;21.29;100.00;100451.59;5051497;28;20396;-73
2022/06/29 02:34:50;;;;;;;8.40;5.65;;;;;;;21.30;100.00;100429.72;5047660;28;20032;-75
2022/06/29 02:37:16;;;;;;;11.00;5.72;;;;;;;20.91;100.00;100430.00;5051169;28;20025;-73
2022/06/29 02:39:43;;;;;;;7.65;5.85;;;;;;;20.33;100.00;100410.16;5051667;28;20412;-75
2022/06/29 02:42:10;;;;;;;8.65;6.03;;;;;;;20.12;100.00;100401.47;5050992;28;20156;-75
2022/06/29 02:44:36;;;;;;;9.45;6.20;;;;;;;19.84;100.00;100390.22;5051176;28;20024;-76
2022/06/29 02:47:02;;;;;;;6.65;5.57;;;;;;;19.92;100.00;100411.16;5050715;28;20595;-73
2022/06/29 02:49:28;;;;;;;7.70;5.47;;;;;;;19.66;100.00;100385.84;5050693;28;20025;-73
2022/06/29 02:51:53;;;;;;;10.25;6.28;;;;;;;19.50;100.00;100377.16;5050020;28;20502;-76
2022/06/29 02:54:19;;;;;;;7.32;5.82;;;;;;;19.43;100.00;100393.72;5050927;28;20462;-77
2022/06/29 02:56:44;;;;;;;8.95;6.35;;;;;;;19.48;100.00;100405.09;5042423;28;20033;-74
2022/06/29 02:59:10;;;;;;;10.98;6.45;;;;;;;19.56;100.00;100403.31;5031241;28;20017;-76
2022/06/29 03:01:35;;;;;;;11.68;7.35;;;;;;;19.16;100.00;100340.53;5045442;28;20029;-75
2022/06/29 03:04:01;;;;;;;12.20;7.93;;;;;;;19.51;100.00;100403.31;5030703;28;20022;-76
2022/06/29 03:06:26;;;;;;;7.85;5.95;;;;;;;19.31;100.00;100384.16;5045354;28;20036;-76
2022/06/29 03:08:52;;;;;;;9.02;6.65;;;;;;;19.59;100.00;100394.59;5030969;28;20665;-74
2022/06/29 03:11:17;;;;;;;9.15;5.72;;;;;;;19.45;100.00;100374.56;5030885;28;20399;-76
2022/06/29 03:13:43;;;;;;;9.82;6.55;;;;;;;19.55;100.00;100393.72;5030549;28;20037;-75
2022/06/29 03:16:08;;;;;;;8.70;6.05;;;;;;;19.45;100.00;100377.19;5028084;28;20035;-79
2022/06/29 03:18:34;;;;;;;10.68;6.75;;;;;;;19.54;100.00;100411.19;5027889;28;20265;-78
2022/06/29 03:20:59;;;;;;;8.70;6.35;;;;;;;19.34;100.00;100368.44;5028181;28;20192;-74
2022/06/29 03:23:25;;;;;;;6.05;5.43;;;;;;;19.71;100.00;100405.06;5027009;28;20428;-76
2022/06/29 03:25:50;;;;;;;7.82;5.82;;;;;;;19.93;100.00;100412.91;5028249;28;20123;-77
2022/06/29 03:28:16;;;;;;;16.05;6.03;;;;;;;19.94;100.00;100391.06;5028074;28;20083;-74
2022/06/29 03:30:41;;;;;;;8.50;5.55;;;;;;;20.27;100.00;100410.16;5027983;28;20034;-75
2022/06/29 03:33:07;;;;;;;11.38;6.05;;;;;;;20.07;100.00;100358.69;5027712;28;20032;-78
2022/06/29 03:35:33;;;;;;;6.82;5.70;;;;;;;20.43;100.00;100408.38;5027673;28;20072;-76
2022/06/29 03:37:58;;;;;;;9.98;6.40;;;;;;;20.53;100.00;100407.44;5011096;28;20032;-73
2022/06/29 03:40:24;;;;;;;6.63;5.07;;;;;;;20.56;100.00;100403.91;5027800;28;20632;-74
2022/06/29 03:42:50;;;;;;;9.15;5.53;;;;;;;20.72;100.00;100425.72;5027838;28;20029;-75
2022/06/29 03:45:15;;;;;;;8.88;5.72;;;;;;;20.82;100.00;100423.06;5027648;28;20030;-73
2022/06/29 03:47:41;;;;;;;8.07;5.53;;;;;;;20.80;100.00;100414.31;5028825;28;20030;-72
2022/06/29 03:50:08;;;;;;;9.75;5.38;;;;;;;20.88;100.00;100413.41;5029525;28;20052;-75
2022/06/29 03:52:34;;;;;;;8.77;5.30;;;;;;;20.69;100.00;100382.84;5030239;28;20125;-76
2022/06/29 03:55:00;;;;;;;9.65;6.22;;;;;;;20.92;100.00;100418.63;5044432;28;20515;-77
2022/06/29 03:57:25;;;;;;;8.02;5.85;;;;;;;20.84;100.00;100397.66;5030010;28;20159;-75
2022/06/29 03:59:51;;;;;;;8.35;5.65;;;;;;;20.59;100.00;100348.84;5030154;28;20488;-74
2022/06/29 04:02:16;;;;;;;11.13;6.22;;;;;;;21.07;100.00;100422.00;5029713;28;20554;-73
2022/06/29 04:04:42;;;;;;;9.88;5.70;;;;;;;21.15;100.00;100413.19;5030011;28;20037;-75
2022/06/29 04:07:07;;;;;;;9.20;5.97;;;;;;;21.31;99.26;100439.34;5045272;28;20108;-72
2022/06/29 04:09:33;;;;;;;6.40;5.80;;;;;;;21.29;99.43;100415.69;5029989;28;20024;-75
2022/06/29 04:11:58;;;;;;;6.88;5.45;;;;;;;20.99;98.17;100369.56;5045264;28;20040;-74
2022/06/29 04:14:28;;;;;;;5.93;5.32;;;;;;;21.36;97.14;100416.53;5029727;28;20455;-74
2022/06/29 04:16:53;;;;;;;;;;;;;;;21.46;97.14;100438.34;5029918;28;20041;-74
2022/06/29 04:19:19;;;;;;;7.47;5.90;;;;;;;21.51;97.70;100431.28;5029504;28;20311;-73
2022/06/29 04:21:46;;;;;;;9.07;6.10;;;;;;;21.26;97.94;100384.22;5029518;28;20018;-74
2022/06/29 04:24:12;;;;;;;8.20;6.25;;;;;;;21.54;97.93;100428.63;5044128;28;20029;-76
2022/06/29 04:26:37;;;;;;;8.63;6.03;;;;;;;21.58;97.81;100426.88;5029533;28;20078;-71
2022/06/29 04:29:03;;;;;;;13.73;10.02;;;;;;;21.63;98.94;100425.06;5030114;28;20045;-75
2022/06/29 04:31:28;;;;;;;20.90;14.43;;;;;;;21.40;100.00;100428.75;5029580;28;20064;-73
2022/06/29 04:33:54;;;;;;;13.38;10.77;;;;;;;21.17;99.92;100421.94;5029501;28;20421;-72
2022/06/29 04:36:20;;;;;;;16.67;12.43;;;;;;;21.02;100.00;100395.78;5029293;28;20025;-73
2022/06/29 04:38:45;;;;;;;11.48;9.02;;;;;;;21.39;99.23;100436.66;5029479;28;20026;-73
2022/06/29 04:41:11;;;;;;;10.90;9.00;;;;;;;21.44;98.20;100438.34;5029812;28;20017;-72
2022/06/29 04:43:37;;;;;;;10.73;8.23;;;;;;;21.37;99.50;100418.28;5029357;28;20096;-71
2022/06/29 04:46:21;;;;;;;11.82;8.75;;;;;;;21.36;99.65;100432.28;5028044;28;20037;-74
2022/06/29 04:48:58;;;;;;;12.07;10.13;;;;;;;21.23;99.72;100413.13;5029473;28;20025;-73
2022/06/29 04:51:25;;;;;;;11.02;9.93;;;;;;;21.29;100.00;100446.34;5044743;28;20025;-73
2022/06/29 04:53:54;;;;;;;15.13;10.02;;;;;;;21.14;100.00;100408.81;5029273;28;20036;-71
2022/06/29 04:56:22;;;;;;;12.18;10.85;;;;;;;21.40;100.00;100439.25;5029135;28;20021;-72
2022/06/29 04:58:48;;;;;;;11.15;9.60;;;;;;;21.50;100.00;100446.16;5028993;28;20062;-72
2022/06/29 05:01:14;;;;;;;12.48;9.68;;;;;;;21.56;99.90;100444.41;5029437;28;20508;-71
2022/06/29 05:03:39;;;;;;;11.63;9.73;;;;;;;21.55;98.97;100424.25;5045312;28;20029;-72
2022/06/29 05:06:05;;;;;;;13.40;11.40;;;;;;;20.99;98.20;100333.69;5046421;28;20063;-73
2022/06/29 05:08:31;;;;;;;12.73;10.38;;;;;;;21.61;99.04;100446.09;5049210;28;20732;-71
2022/06/29 05:10:56;;;;;;;13.40;10.10;;;;;;;21.57;99.33;100430.38;5049229;28;20369;-73
2022/06/29 05:13:22;;;;;;;16.20;10.38;;;;;;;21.54;99.65;100423.38;5049129;28;20099;-71
2022/06/29 05:15:47;;;;;;;10.38;8.90;;;;;;;21.64;99.94;100421.56;5052010;28;20480;-72
2022/06/29 05:18:13;;;;;;;11.95;9.23;;;;;;;21.48;99.83;100384.91;5053501;28;20033;-72
2022/06/29 05:20:39;;;;;;;10.25;8.27;;;;;;;21.33;97.85;100349.16;5053241;28;20051;-70
2022/06/29 05:23:04;;;;;;;12.43;8.10;;;;;;;21.74;98.00;100411.84;5053606;28;20081;-71
2022/06/29 05:25:31;;;;;;;14.18;8.18;;;;;;;22.05;96.85;100453.56;5053142;28;20396;-77
2022/06/29 05:27:56;;;;;;;10.40;7.47;;;;;;;21.88;96.06;100420.47;5052964;28;20471;-73
2022/06/29 05:30:22;;;;;;;9.23;6.88;;;;;;;22.12;95.69;100440.34;5053165;28;20040;-71
2022/06/29 05:32:47;;;;;;;9.63;7.22;;;;;;;22.16;96.43;100443.81;5052203;28;20053;-70
2022/06/29 05:35:13;;;;;;;10.75;7.47;;;;;;;22.24;95.52;100457.75;5052006;28;20029;-71
2022/06/29 05:37:39;;;;;;;12.07;7.85;;;;;;;22.29;96.29;100449.78;5051773;28;20071;-71
2022/06/29 05:40:05;;;;;;;11.40;7.57;;;;;;;22.37;94.71;100450.59;5051810;28;20017;-70
2022/06/29 05:42:31;;;;;;;12.02;6.85;;;;;;;22.49;94.54;100456.59;5051401;28;20039;-75
2022/06/29 05:44:56;;;;;;;9.88;6.82;;;;;;;22.27;94.00;100404.25;5051626;28;20025;-71
2022/06/29 05:47:21;;;;;;;10.50;7.68;;;;;;;22.51;93.93;100426.75;5051505;28;20021;-70
2022/06/29 05:49:47;;;;;;;9.68;7.97;;;;;;;22.80;94.77;100464.09;5051687;28;20028;-74
2022/06/29 05:52:12;;;;;;;11.38;6.78;;;;;;;22.50;92.84;100411.84;5051603;28;20032;-74
2022/06/29 05:54:38;;;;;;;9.25;7.70;;;;;;;22.83;92.40;100469.31;5051494;28;20040;-73
2022/06/29 05:57:05;;;;;;;11.20;7.78;;;;;;;22.88;92.18;100467.47;5051315;28;20377;-73
2022/06/29 05:59:31;;;;;;;12.93;7.32;;;;;;;22.63;92.69;100402.06;5051866;28;20033;-74
2022/06/29 06:01:57;;;;;;;9.00;7.47;;;;;;;22.97;91.45;100450.69;5051717;28;20028;-74
2022/06/29 06:04:23;;;;;;;9.10;7.22;;;;;;;23.19;91.45;100472.34;5051254;28;20484;-75
2022/06/29 06:06:48;;;;;;;9.75;7.22;;;;;;;23.19;92.13;100470.59;5051130;28;20025;-76
2022/06/29 06:09:14;;;;;;;10.80;7.70;;;;;;;23.17;92.70;100458.34;5051098;28;20105;-74
2022/06/29 06:11:39;;;;;;;10.18;6.95;;;;;;;23.35;91.09;100465.94;5049729;28;20063;-73
2022/06/29 06:14:05;;;;;;;10.77;6.97;;;;;;;23.48;90.33;100465.72;5051007;28;20108;-72
2022/06/29 06:16:30;;;;;;;12.63;8.30;;;;;;;23.43;88.85;100439.47;5051476;28;20033;-73
2022/06/29 06:18:56;;;;;;;8.32;6.90;;;;;;;23.45;88.84;100411.31;5051145;28;20025;-73
2022/06/29 06:21:21;;;;;;;8.60;7.55;;;;;;;23.65;89.91;100439.09;5051162;28;20064;-73
2022/06/29 06:23:48;;;;;;;11.75;7.32;;;;;;;23.72;89.85;100438.09;5051296;28;20029;-74
2022/06/29 06:26:14;;;;;;;11.57;7.53;;;;;;;23.84;88.47;100432.59;5050604;28;20027;-74
2022/06/29 06:28:40;;;;;;;9.65;6.72;;;;;;;24.09;86.78;100450.63;5051231;28;20025;-73
2022/06/29 06:31:07;;;;;;;8.30;7.18;;;;;;;24.10;87.52;100436.53;5007915;28;1229612;-78
2022/06/29 06:33:33;;;;;;;8.75;7.00;;;;;;;24.25;86.20;100445.03;5052211;28;20033;-73
2022/06/29 06:35:58;;;;;;;10.38;6.47;;;;;;;24.37;83.91;100445.66;5051922;28;20045;-73
2022/06/29 06:38:24;;;;;;;10.55;7.22;;;;;;;24.32;81.90;100415.00;5051889;28;20431;-73
2022/06/29 06:43:33;;;;;;;8.98;6.70;;;;;;;24.50;84.64;100434.81;5051132;28;20122;-72
2022/06/29 06:45:58;;;;;;;12.75;7.18;;;;;;;24.52;83.02;100439.19;5051597;28;20063;-74
2022/06/29 06:48:24;;;;;;;9.95;6.18;;;;;;;24.58;82.29;100442.59;5051758;28;20032;-74
2022/06/29 06:50:49;;;;;;;7.78;6.15;;;;;;;24.60;82.24;100424.94;5051984;28;20033;-74
2022/06/29 06:53:15;;;;;;;10.32;6.03;;;;;;;24.63;80.80;100407.28;5051028;28;20036;-73
2022/06/29 06:55:40;;;;;;;8.98;6.10;;;;;;;24.77;79.22;100451.00;5051720;28;20025;-73
2022/06/29 06:58:06;;;;;;;7.43;6.07;;;;;;;24.80;79.20;100422.78;5048098;28;20053;-73
2022/06/29 07:00:31;;;;;;;8.88;5.97;;;;;;;24.97;76.78;100425.03;5051415;28;20028;-73
2022/06/29 07:02:57;;;;;;;11.15;6.18;;;;;;;25.27;75.99;100446.34;5051291;28;20514;-74
2022/06/29 07:05:22;;;;;;;7.65;5.28;;;;;;;25.40;74.31;100454.00;5051119;28;20529;-76
2022/06/29 07:07:48;;;;;;;7.03;5.25;;;;;;;25.34;73.63;100420.63;5047188;28;20025;-73
2022/06/29 07:10:13;;;;;;;6.82;5.05;;;;;;;25.23;70.96;100393.59;5050125;28;20033;-74
2022/06/29 07:12:38;;;;;;;8.90;5.47;;;;;;;25.61;73.34;100447.25;5051047;28;20025;-74
2022/06/29 07:15:05;;;;;;;6.22;4.70;;;;;;;25.63;68.75;100419.03;5051238;28;20420;-77
2022/06/29 07:17:31;;;;;;;7.95;5.25;;;;;;;25.79;72.45;100438.84;5051281;28;20056;-73
2022/06/29 07:19:56;;;;;;;7.88;5.03;;;;;;;25.68;69.25;100423.28;5051351;28;20037;-72
2022/06/29 07:22:22;;;;;;;6.60;4.75;;;;;;;25.95;67.84;100436.66;5049636;28;20399;-74
2022/06/29 07:24:47;;;;;;;11.15;5.10;;;;;;;25.99;71.16;100434.81;5050530;28;20036;-72
2022/06/29 07:27:13;;;;;;;9.30;4.63;;;;;;;26.06;67.60;100430.25;5050987;28;20032;-76
2022/06/29 07:29:39;;;;;;;9.55;4.45;;;;;;;25.70;66.95;100362.44;5050677;28;20028;-73
2022/06/29 07:32:05;;;;;;;8.48;4.68;;;;;;;26.01;66.71;100433.00;5050800;28;20053;-74
2022/06/29 07:34:30;;;;;;;15.90;5.15;;;;;;;26.02;63.35;100431.19;5049605;28;20029;-71
2022/06/29 07:36:55;;;;;;;11.38;5.10;;;;;;;26.15;62.99;100433.50;5050279;28;20029;-70
2022/06/29 07:39:21;;;;;;;14.75;5.32;;;;;;;26.26;62.60;100427.91;5049199;28;20113;-71
2022/06/29 07:41:46;;;;;;;11.73;4.90;;;;;;;26.12;58.65;100370.09;5049568;28;20408;-70
2022/06/29 07:44:13;;;;;;;15.95;5.32;;;;;;;26.50;58.90;100417.50;5048623;28;20108;-74
2022/06/29 07:46:39;;;;;;;15.23;5.40;;;;;;;26.62;61.64;100430.38;5049978;28;20017;-72
2022/06/29 07:49:04;;;;;;;8.40;4.20;;;;;;;26.48;60.27;100419.31;5050274;28;20021;-71
2022/06/29 07:51:30;;;;;;;8.73;4.45;;;;;;;26.58;60.27;100420.78;5049518;28;20533;-75
2022/06/29 07:53:56;;;;;;;9.35;4.70;;;;;;;26.54;60.48;100411.19;5050130;28;20028;-75
2022/06/29 07:56:21;;;;;;;7.35;4.30;;;;;;;26.79;59.01;100431.66;5049801;28;20613;-74
2022/06/29 07:58:46;;;;;;;14.02;3.70;;;;;;;27.01;56.09;100444.22;5049996;28;20028;-74
2022/06/29 08:01:12;;;;;;;9.93;2.67;;;;;;;27.11;54.39;100421.81;5050599;28;20107;-73
2022/06/29 08:03:38;;;;;;;11.25;3.70;;;;;;;27.25;55.27;100434.59;5052110;28;20495;-71
2022/06/29 08:06:05;;;;;;;10.32;3.25;;;;;;;27.35;55.83;100429.88;5041948;28;20067;-73
2022/06/29 08:08:31;;;;;;;6.65;3.30;;;;;;;27.44;54.77;100416.31;5029786;28;20029;-75
2022/06/29 08:10:57;;;;;;;9.13;3.67;;;;;;;27.52;54.14;100440.81;5029859;28;20440;-76
2022/06/29 08:13:23;;;;;;;6.90;3.58;;;;;;;27.47;54.56;100440.09;5029662;28;20091;-74
2022/06/29 08:15:49;;;;;;;6.15;3.10;;;;;;;27.47;55.20;100436.59;5029966;28;20424;-72
2022/06/29 08:18:15;;;;;;;7.30;3.80;;;;;;;27.49;55.24;100442.69;5029467;28;20045;-72
2022/06/29 08:20:41;;;;;;;8.10;3.58;;;;;;;27.55;55.54;100440.72;5011003;28;20041;-76
2022/06/29 08:23:07;;;;;;;5.75;3.50;;;;;;;27.58;53.01;100434.44;5047592;28;20484;-75
2022/06/29 08:25:32;;;;;;;5.95;3.30;;;;;;;27.46;53.06;100440.16;5040366;28;20029;-77
2022/06/29 08:28:00;;;;;;;5.22;3.15;;;;;;;27.51;53.56;100435.56;5029464;28;20037;-73
2022/06/29 08:30:27;;;;;;;6.45;3.50;;;;;;;27.58;57.79;100443.25;5029398;28;20034;-77
2022/06/29 08:32:52;;;;;;;8.80;3.45;;;;;;;27.49;55.89;100398.50;5029416;28;20045;-75
2022/06/29 08:35:18;;;;;;;6.97;3.35;;;;;;;28.00;53.14;100440.91;5029035;28;20028;-73
2022/06/29 08:37:45;;;;;;;5.60;3.20;;;;;;;28.14;53.87;100440.44;5029635;28;20029;-73
2022/06/29 08:40:15;;;;;;;9.68;2.90;;;;;;;28.24;52.98;100445.34;5029316;28;20407;-73
2022/06/29 08:42:41;;;;;;;18.58;4.45;;;;;;;28.32;54.55;100438.91;5029915;28;20026;-74
2022/06/29 08:45:09;;;;;;;14.25;3.92;;;;;;;28.28;50.94;100424.03;5029381;28;20060;-74
2022/06/29 08:47:35;;;;;;;13.18;3.90;;;;;;;28.27;52.56;100417.81;5028995;28;20123;-72
2022/06/29 08:50:05;;;;;;;19.65;4.82;;;;;;;28.43;55.44;100438.50;5033025;28;20484;-73
2022/06/29 08:52:34;;;;;;;5.95;3.00;;;;;;;28.44;51.38;100441.09;5040130;28;20030;-75
2022/06/29 08:58:24;;;;;;;6.03;2.75;;;;;;;28.41;51.04;100419.94;5078664;23;20516;-73
2022/06/29 09:00:51;;;;;;;9.18;3.60;;;;;;;28.69;50.40;100443.69;5054378;28;20037;-71
2022/06/29 09:03:21;;;;;;;10.93;3.17;;;;;;;28.73;49.44;100424.03;5018877;28;20120;-73
2022/06/29 09:05:54;;;;;;;11.52;3.15;;;;;;;28.84;48.37;100438.72;5015109;28;20029;-76
2022/06/29 09:08:20;;;;;;;7.80;2.90;;;;;;;28.96;46.60;100413.41;4997008;28;20034;-71
2022/06/29 09:10:46;;;;;;;4.88;2.70;;;;;;;29.11;45.03;100418.13;5021518;28;20481;-73
2022/06/29 09:13:19;;;;;;;8.43;3.47;;;;;;;29.33;47.03;100436.72;5016030;28;20038;-73
2022/06/29 09:15:45;;;;;;;9.20;3.00;;;;;;;29.26;46.76;100398.00;5027768;28;20105;-73
2022/06/29 09:18:25;;;;;;;5.53;2.38;;;;;;;29.38;44.79;100386.00;5025095;28;20056;-72
2022/06/29 09:20:58;;;;;;;8.15;2.72;;;;;;;29.81;44.90;100433.84;5033324;28;20026;-72
2022/06/29 09:23:24;;;;;;;8.48;2.55;;;;;;;29.95;47.24;100436.75;5033703;28;20059;-71
2022/06/29 09:25:50;;;;;;;4.70;2.47;;;;;;;29.76;45.32;100380.81;5033491;28;20112;-72
2022/06/29 09:28:34;;;;;;;21.80;19.45;;;;;;;30.11;45.79;100434.28;5033639;28;20075;-73
2022/06/29 09:31:00;;;;;;;9.60;4.35;;;;;;;30.06;46.26;100415.00;5033569;28;20029;-75
2022/06/29 09:33:28;;;;;;;11.48;5.57;;;;;;;30.36;44.29;100437.59;5033015;28;20405;-77
2022/06/29 09:36:14;;;;;;;8.98;2.88;;;;;;;30.28;45.15;100414.88;5033615;28;20060;-73
2022/06/29 09:38:41;;;;;;;9.73;2.75;;;;;;;30.59;44.21;100449.88;5021514;28;20021;-74
2022/06/29 09:41:06;;;;;;;21.75;4.55;;;;;;;30.62;43.06;100437.28;5015624;28;20018;-75
2022/06/29 09:43:34;;;;;;;18.83;4.10;;;;;;;30.73;42.21;100433.22;5032966;28;20488;-76
2022/06/29 09:46:03;;;;;;;14.30;3.47;;;;;;;30.86;41.68;100429.03;5033123;28;20021;-74
2022/06/29 09:48:29;;;;;;;;;;;;;;;31.08;42.14;100428.00;5033299;28;20115;-73
2022/06/29 09:50:56;;;;;;;7.90;3.20;;;;;;;31.16;39.03;100427.66;5033395;28;19917;-73
2022/06/29 09:53:41;;;;;;;8.20;3.05;;;;;;;31.11;40.03;100425.22;5032812;28;20061;-73
2022/06/29 09:56:11;;;;;;;8.18;3.38;;;;;;;31.13;37.79;100421.53;5032686;28;20480;-73
2022/06/29 09:58:44;;;;;;;5.75;2.50;;;;;;;30.90;38.32;100368.44;5033093;28;20110;-74
2022/06/29 10:03:56;;;;;;;7.47;3.33;;;;;;;31.26;46.13;100428.91;5032721;28;20121;-72
2022/06/29 10:06:23;;;;;;;7.03;2.63;;;;;;;31.25;41.31;100413.84;5025855;28;20112;-72
2022/06/29 10:08:48;;;;;;;11.15;3.40;;;;;;;31.39;42.03;100423.81;5030137;28;20625;-74
2022/06/29 10:14:29;;;;;;;9.82;3.03;;;;;;;31.92;41.80;100438.84;5025838;28;20044;-73
2022/06/29 10:17:08;;;;;;;5.82;2.85;;;;;;;32.08;39.24;100419.34;5030271;28;20477;-71
2022/06/29 10:19:48;;;;;;;8.90;3.37;;;;;;;31.59;39.38;100414.78;5015166;28;20046;-72
2022/06/29 10:22:13;;;;;;;13.23;3.72;;;;;;;31.72;39.79;100402.53;5016636;28;20028;-72
2022/06/29 10:25:00;;;;;;;8.38;3.38;;;;;;;31.70;37.76;100401.78;4993938;28;20041;-73
2022/06/29 10:27:25;;;;;;;8.10;2.88;;;;;;;31.94;41.39;100412.09;5011820;28;20024;-72
2022/06/29 10:30:11;;;;;;;7.30;2.75;;;;;;;32.09;41.73;100413.94;5011480;28;20018;-73
2022/06/29 10:32:38;;;;;;;9.73;3.33;;;;;;;31.99;37.93;100369.09;5013160;28;20025;-73
2022/06/29 10:35:07;;;;;;;12.82;3.38;;;;;;;32.54;35.61;100413.31;5015991;28;20097;-74
2022/06/29 10:37:33;;;;;;;8.82;3.25;;;;;;;32.71;34.94;100415.03;5011632;28;20504;-74
2022/06/29 10:40:04;;;;;;;10.68;3.10;;;;;;;32.54;34.92;100395.47;5017728;28;20045;-76
2022/06/29 10:45:24;;;;;;;8.60;2.90;;;;;;;31.96;36.55;100402.19;5029106;28;20036;-74
2022/06/29 10:48:12;;;;;;;;;;;;;;;32.03;37.63;100400.06;5031557;28;20033;-72
2022/06/29 10:50:39;;;;;;;14.25;3.10;;;;;;;32.13;41.05;100390.59;4967847;28;19918;-72
2022/06/29 10:53:06;;;;;;;14.35;3.00;;;;;;;32.47;38.45;100402.09;4970024;28;20410;-73
2022/06/29 10:55:34;;;;;;;9.23;3.00;;;;;;;32.77;38.27;100392.47;4970085;28;20043;-73
2022/06/29 10:58:02;;;;;;;13.13;9.15;;;;;;;32.27;35.70;100339.09;4968026;28;20579;-71
2022/06/29 11:00:29;;;;;;;21.83;4.55;;;;;;;32.78;39.63;100399.56;4964933;28;20034;-70
2022/06/29 11:02:55;;;;;;;16.58;4.10;;;;;;;32.99;35.61;100395.63;4969251;28;20034;-71
2022/06/29 11:05:21;;;;;;;6.90;2.45;;;;;;;33.27;33.50;100385.94;4964268;28;20049;-73
2022/06/29 11:13:29;;;;;;;6.28;2.00;;;;;;;32.29;33.61;100387.09;4967479;28;20069;-72
2022/06/29 11:15:58;;;;;;;10.88;3.58;;;;;;;32.43;34.64;100363.16;4969204;28;20076;-71
2022/06/29 11:18:30;;;;;;;4.53;2.10;;;;;;;32.32;34.14;100346.88;4969423;28;20041;-73
2022/06/29 11:21:04;;;;;;;6.25;2.10;;;;;;;32.76;35.05;100380.06;4969792;28;20101;-77
2022/06/29 11:23:35;;;;;;;3.47;2.15;;;;;;;33.05;33.69;100386.38;4969918;28;20641;-73
2022/06/29 11:26:02;;;;;;;4.40;2.15;;;;;;;33.19;35.66;100370.38;4969270;28;20039;-73
2022/06/29 11:28:34;;;;;;;5.03;2.15;;;;;;;32.99;34.06;100331.44;5018285;28;20045;-74
2022/06/29 11:31:05;;;;;;;5.05;2.38;;;;;;;32.68;33.80;100375.13;5029998;28;20056;-74
2022/06/29 11:33:39;;;;;;;12.88;3.00;;;;;;;32.79;33.66;100353.13;5031226;28;20037;-73
2022/06/29 11:36:07;;;;;;;20.23;5.00;;;;;;;32.67;35.06;100360.88;5030597;28;20038;-73
2022/06/29 11:38:38;;;;;;;12.85;3.05;;;;;;;32.98;35.20;100367.16;5030808;28;20017;-74
2022/06/29 11:41:13;;;;;;;9.52;2.75;;;;;;;33.38;33.02;100367.47;5030660;28;20555;-73